createdAt,value
2023-02-09T00:01:09.770Z,-4.19
2023-02-09T00:03:37.094Z,-4.13
2023-02-09T00:06:06.400Z,-4.25
2023-02-09T00:08:33.821Z,-4.09
2023-02-09T00:11:00.514Z,-4.12
2023-02-09T00:13:28.220Z,-4.05
2023-02-09T00:15:57.500Z,-4.07
2023-02-09T00:18:25.528Z,-4.03
2023-02-09T00:21:06.600Z,-4.07
2023-02-09T00:23:35.820Z,-4.08
2023-02-09T00:26:05.904Z,-4.03
2023-02-09T00:28:32.732Z,-4.03
2023-02-09T00:30:59.442Z,-4.06
2023-02-09T00:33:26.033Z,-4.03
2023-02-09T00:35:52.749Z,-4.08
2023-02-09T00:38:19.325Z,-4.03
2023-02-09T00:40:47.905Z,-4.07
2023-02-09T00:43:15.338Z,-4.12
2023-02-09T00:45:41.982Z,-4.10
2023-02-09T00:48:08.588Z,-4.09
2023-02-09T00:50:35.976Z,-4.14
2023-02-09T00:53:02.534Z,-4.20
2023-02-09T00:55:29.321Z,-4.12
2023-02-09T00:57:56.644Z,-4.20
2023-02-09T01:00:23.377Z,-4.16
2023-02-09T01:02:50.058Z,-4.22
2023-02-09T01:05:17.717Z,-4.19
2023-02-09T01:07:44.730Z,-4.16
2023-02-09T01:10:14.627Z,-4.16
2023-02-09T01:12:42.637Z,-4.10
2023-02-09T01:15:10.856Z,-4.07
2023-02-09T01:17:37.897Z,-4.14
2023-02-09T01:20:07.463Z,-4.02
2023-02-09T01:22:34.243Z,-4.00
2023-02-09T01:25:00.794Z,-3.99
2023-02-09T01:27:27.892Z,-3.98
2023-02-09T01:29:54.483Z,-3.92
2023-02-09T01:32:21.050Z,-3.94
2023-02-09T01:34:51.377Z,-3.91
2023-02-09T01:37:18.083Z,-3.85
2023-02-09T01:39:44.708Z,-3.84
2023-02-09T01:42:19.645Z,-3.84
2023-02-09T01:44:46.142Z,-3.80
2023-02-09T01:47:17.321Z,-3.77
2023-02-09T01:49:47.717Z,-3.85
2023-02-09T01:52:26.982Z,-3.82
2023-02-09T01:54:59.916Z,-3.81
2023-02-09T01:57:34.462Z,-3.81
2023-02-09T02:00:07.397Z,-3.96
2023-02-09T02:02:34.677Z,-3.82
2023-02-09T02:05:02.090Z,-3.81
2023-02-09T02:07:36.438Z,-3.82
2023-02-09T02:10:04.883Z,-3.79
2023-02-09T02:12:32.939Z,-3.82
2023-02-09T02:14:59.544Z,-3.87
2023-02-09T02:18:11.641Z,-3.92
2023-02-09T02:20:40.867Z,-4.02
2023-02-09T02:23:29.548Z,-4.10
2023-02-09T02:26:20.009Z,-4.12
2023-02-09T02:28:58.175Z,-4.14
2023-02-09T02:31:56.102Z,-4.10
2023-02-09T02:34:53.086Z,-4.08
2023-02-09T02:37:25.329Z,-4.06
2023-02-09T02:40:17.488Z,-4.02
2023-02-09T02:43:01.430Z,-3.98
2023-02-09T02:45:34.044Z,-3.96
2023-02-09T02:48:15.837Z,-4.00
2023-02-09T02:50:51.338Z,-4.09
2023-02-09T02:53:22.557Z,-4.10
2023-02-09T02:55:50.144Z,-4.09
2023-02-09T02:58:19.667Z,-4.14
2023-02-09T03:00:51.496Z,-4.08
2023-02-09T03:03:21.951Z,-4.12
2023-02-09T03:05:50.461Z,-4.19
2023-02-09T03:08:17.127Z,-4.20
2023-02-09T03:10:46.499Z,-4.19
2023-02-09T03:13:43.420Z,-4.15
2023-02-09T03:16:16.236Z,-4.03
2023-02-09T03:18:52.621Z,-3.98
2023-02-09T03:21:34.260Z,-3.95
2023-02-09T03:24:05.916Z,-3.98
2023-02-09T03:27:10.844Z,-3.95
2023-02-09T03:29:39.042Z,-3.91
2023-02-09T03:32:06.901Z,-3.90
2023-02-09T03:34:33.846Z,-3.91
2023-02-09T03:37:01.221Z,-3.95
2023-02-09T03:39:27.932Z,-3.90
2023-02-09T03:41:54.598Z,-3.92
2023-02-09T03:44:27.069Z,-3.92
2023-02-09T03:46:57.438Z,-3.85
2023-02-09T03:49:25.398Z,-3.87
2023-02-09T03:52:07.161Z,-3.84
2023-02-09T03:54:34.052Z,-3.94
2023-02-09T03:57:01.570Z,-3.94
2023-02-09T03:59:29.497Z,-3.88
2023-02-09T04:01:58.392Z,-3.88
2023-02-09T04:04:26.141Z,-3.92
2023-02-09T04:06:53.329Z,-3.84
2023-02-09T04:09:20.963Z,-3.80
2023-02-09T04:11:48.003Z,-3.78
2023-02-09T04:14:15.959Z,-3.88
2023-02-09T04:19:42.850Z,-3.85
2023-02-09T04:22:09.862Z,-3.88
2023-02-09T04:24:36.433Z,-3.90
2023-02-09T04:27:04.656Z,-3.86
2023-02-09T04:29:31.329Z,-3.80
2023-02-09T04:31:58.265Z,-3.85
2023-02-09T04:34:25.757Z,-3.88
2023-02-09T04:36:52.419Z,-3.78
2023-02-09T04:39:19.167Z,-3.74
2023-02-09T04:41:45.820Z,-3.79
2023-02-09T04:44:12.465Z,-3.85
2023-02-09T04:46:39.037Z,-3.89
2023-02-09T04:49:05.640Z,-3.93
2023-02-09T04:51:32.214Z,-3.98
2023-02-09T04:53:58.897Z,-3.96
2023-02-09T04:56:25.495Z,-3.94
2023-02-09T04:59:10.702Z,-3.92
2023-02-09T05:01:38.065Z,-3.87
2023-02-09T05:04:04.721Z,-3.75
2023-02-09T05:06:31.315Z,-3.74
2023-02-09T05:08:59.817Z,-3.67
2023-02-09T05:11:27.573Z,-3.58
2023-02-09T05:13:54.182Z,-3.51
2023-02-09T05:16:20.949Z,-3.44
2023-02-09T05:18:47.816Z,-3.45
2023-02-09T05:21:14.511Z,-3.46
2023-02-09T05:23:42.334Z,-3.38
2023-02-09T05:26:09.056Z,-3.36
2023-02-09T05:28:35.661Z,-3.42
2023-02-09T05:31:02.326Z,-3.47
2023-02-09T05:33:29.121Z,-3.44
2023-02-09T18:08:57.621Z,-3.50
2023-02-09T18:11:40.517Z,-3.39
2023-02-09T18:14:07.652Z,-3.32
2023-02-09T18:16:36.576Z,-3.21
2023-02-09T18:19:03.435Z,-3.22
2023-02-09T18:21:30.653Z,-3.18
2023-02-09T18:23:57.273Z,-3.05
2023-02-09T18:26:23.894Z,-2.99
2023-02-09T18:28:50.539Z,-2.94
2023-02-09T18:31:17.204Z,-3.02
2023-02-09T18:33:44.971Z,-3.00
2023-02-09T18:36:15.632Z,-2.98
2023-02-09T18:38:42.370Z,-2.90
2023-02-09T18:41:12.840Z,-2.90
2023-02-09T18:43:40.100Z,-2.93
2023-02-09T18:46:06.747Z,-2.89
2023-02-09T18:48:33.757Z,-2.88
2023-02-09T18:51:01.163Z,-2.92
2023-02-09T18:53:27.851Z,-3.00
2023-02-09T18:55:54.462Z,-2.84
2023-02-09T18:58:21.866Z,-2.81
2023-02-09T19:00:48.496Z,-2.76
2023-02-09T19:03:17.760Z,-2.75
2023-02-09T19:05:45.004Z,-2.80
2023-02-09T19:08:13.482Z,-2.78
2023-02-09T19:10:42.356Z,-2.79
2023-02-09T19:13:10.245Z,-2.81
2023-02-09T19:15:39.110Z,-2.78
2023-02-09T19:18:06.101Z,-2.72
2023-02-09T19:20:34.326Z,-2.73
2023-02-09T19:23:02.517Z,-2.73
2023-02-09T19:25:36.217Z,-2.72
2023-02-09T19:28:02.897Z,-2.85
2023-02-09T19:30:37.308Z,-2.75
2023-02-09T19:33:04.789Z,-2.73
2023-02-09T19:35:31.993Z,-2.70
2023-02-09T19:37:58.906Z,-2.73
2023-02-09T19:40:37.303Z,-2.70
2023-02-09T19:43:05.036Z,-2.72
2023-02-09T19:45:36.462Z,-2.69
2023-02-09T19:48:05.388Z,-2.74
2023-02-09T19:50:38.564Z,-2.78
2023-02-09T19:53:06.290Z,-2.71
2023-02-09T19:55:33.583Z,-2.71
2023-02-09T19:58:00.264Z,-2.73
2023-02-09T20:00:28.595Z,-2.79
2023-02-09T20:02:55.205Z,-2.74
2023-02-09T20:05:21.829Z,-2.68
2023-02-09T20:07:49.229Z,-2.72
2023-02-09T20:10:16.721Z,-2.68
2023-02-09T20:15:15.658Z,-2.70
2023-02-09T20:17:42.334Z,-2.75
2023-02-09T20:20:09.972Z,-2.78
2023-02-09T20:22:37.644Z,-2.77
2023-02-09T20:25:04.639Z,-2.84
2023-02-09T20:27:31.305Z,-2.79
2023-02-09T20:30:01.435Z,-2.76
2023-02-09T20:32:28.976Z,-2.71
2023-02-09T20:34:56.154Z,-2.72
2023-02-09T20:37:22.896Z,-2.74
2023-02-09T20:39:49.520Z,-2.77
2023-02-09T20:42:34.669Z,-2.80
2023-02-09T20:45:20.356Z,-2.78
2023-02-09T20:47:46.946Z,-2.83
2023-02-09T20:50:16.729Z,-2.78
2023-02-09T20:52:45.701Z,-2.80
2023-02-09T20:55:13.885Z,-2.81
2023-02-09T20:57:40.567Z,-2.83
2023-02-09T21:00:09.614Z,-2.81
2023-02-09T21:02:37.974Z,-2.81
2023-02-09T21:05:07.820Z,-2.75
2023-02-09T21:07:35.607Z,-2.80
2023-02-09T21:10:02.970Z,-2.77
2023-02-09T21:12:29.655Z,-2.84
2023-02-09T21:14:56.642Z,-2.74
2023-02-09T21:17:24.514Z,-2.78
2023-02-09T21:19:51.112Z,-2.77
2023-02-09T21:22:17.788Z,-2.74
2023-02-09T21:24:45.874Z,-2.74
2023-02-09T21:27:13.609Z,-2.66
2023-02-09T21:29:40.523Z,-2.69
2023-02-09T21:32:07.656Z,-2.75
2023-02-09T21:34:34.300Z,-2.77
2023-02-09T21:37:00.943Z,-2.76
2023-02-09T21:39:27.980Z,-2.98
2023-02-09T21:42:13.082Z,-2.76
2023-02-09T21:44:40.690Z,-2.75
2023-02-09T21:47:07.482Z,-2.69
2023-02-09T21:49:34.413Z,-2.81
2023-02-09T21:52:02.985Z,-2.71
2023-02-09T21:54:33.766Z,-2.71
2023-02-09T21:57:05.010Z,-2.65
2023-02-09T21:59:31.669Z,-2.59
2023-02-09T22:01:58.253Z,-2.59
2023-02-09T22:04:25.865Z,-2.74
2023-02-09T22:06:52.608Z,-2.67
2023-02-09T22:09:20.405Z,-2.81
2023-02-09T22:11:47.250Z,-2.67
2023-02-09T22:14:14.358Z,-2.60
2023-02-09T22:16:41.064Z,-2.62
2023-02-09T22:19:08.586Z,-2.61
2023-02-09T22:21:35.182Z,-2.64
2023-02-09T22:24:01.850Z,-2.76
2023-02-09T22:26:30.021Z,-2.67
2023-02-09T22:28:56.871Z,-2.68
2023-02-09T22:31:23.563Z,-2.73
2023-02-09T22:33:58.921Z,-2.76
2023-02-09T22:36:25.552Z,-2.71
2023-02-09T22:38:52.180Z,-2.66
2023-02-09T22:41:22.123Z,-2.72
2023-02-09T22:43:51.758Z,-2.64
2023-02-09T22:46:19.333Z,-2.58
2023-02-09T22:48:58.067Z,-2.58
2023-02-09T22:51:28.409Z,-2.69
2023-02-09T22:54:00.123Z,-2.60
2023-02-09T22:56:28.388Z,-2.63
2023-02-09T22:59:00.749Z,-2.59
2023-02-09T23:01:29.088Z,-2.65
2023-02-09T23:03:55.981Z,-2.55
2023-02-09T23:06:27.861Z,-2.80
2023-02-09T23:08:56.913Z,-2.66
2023-02-09T23:11:24.534Z,-2.59
2023-02-09T23:14:03.786Z,-2.63
2023-02-09T23:16:35.601Z,-2.68
2023-02-09T23:19:06.104Z,-2.61
2023-02-09T23:21:35.842Z,-2.69
2023-02-09T23:24:03.412Z,-2.69
2023-02-09T23:26:30.446Z,-2.67
2023-02-09T23:28:59.696Z,-2.65
2023-02-09T23:31:27.350Z,-2.67
2023-02-09T23:33:55.281Z,-2.66
2023-02-09T23:36:25.154Z,-2.65
2023-02-09T23:38:55.800Z,-2.62
2023-02-09T23:41:22.999Z,-2.61
2023-02-09T23:43:50.514Z,-2.56
2023-02-09T23:46:20.819Z,-2.55
2023-02-09T23:48:48.554Z,-2.54
2023-02-09T23:51:20.760Z,-2.55
2023-02-09T23:53:47.916Z,-2.55
2023-02-09T23:56:17.676Z,-2.58
2023-02-09T23:58:46.851Z,-2.55
